Colby, KS

2:36 AM CST on February 27, 2015 (GMT -0600)
McCook Municipal | Change Station
CLOSE
Current Station
Airport
Location: McCook,
Elevation: 2579 ft
Nearby Weather Stations

Elev 2579 ft 40.20 °N, 100.59 °W | Updated 43 minutes ago

Overcast
Overcast
9 °F
Feels Like -2 °F
N
7
Wind Variable Wind from East

Today
High -- | Low -- °F
--% Chance of Precip.
Yesterday
High -- | Low -- °F
Precip. -- in
7:20 AM 6:34 PM
Waxing Gibbous, 67% visible
Pressure 30.58 in
Visibility 10.0 miles
Clouds Overcast 10000 ft
Windchill -2 °F
Dew Point -3 °F
Humidity 59%
Rainfall 0.00 in
Snow Depth Not available.
UV 0 out of 12
Pollen 1.20 out of 12
Air Quality Not available.
Flu Activity Not available.
METAR KMCK 270753Z AUTO 08006KT 10SM OVC100 M13/M19 A3045 RMK AO2 SLP354 T11281194

More Conditions Fewer Conditions

Pressure 30.58 in
Visibility 10.0 miles
Clouds Overcast 10000 ft
Windchill -2 °F
Dew Point -3 °F
Humidity 59%
Rainfall 0.00 in
Snow Depth Not available.
UV 0 out of 12
Pollen 1.20 out of 12
Air Quality Not available.
Flu Activity Not available.
METAR KMCK 270753Z AUTO 08006KT 10SM OVC100 M13/M19 A3045 RMK AO2 SLP354 T11281194

More Conditions Fewer Conditions

10-Day Weather Forecast

Almanac

Astronomy

Feb. 27, 2015 Rise Set
Actual Time
Civil Twilight
Nautical Twilight
Astronomical Twilight
Moon
Length of Visible Light
Length of Day
Tomorrow will be .
, % of the Moon is Illuminated

Today's Extremes

State Highs State Lows

Community

WunderPhotos

Upload Photos

1,800,649 photos uploaded!

WunderBlogs® & News

Nearby

Air Quality

  Air Quality AQ Index Pollutant
Not available.

Snow Depth

Station Depth Elevation

Earthquake Activity

City Distance Mag. Time & Date
Minimum magnitude displayed is 2.5.

Coastal Water Temperatures

Place Temperature

Nearby Weather Stations